sensor_id;sensor_type;location;lat;lon;timestamp;temperature;humidity
47961;DHT22;33721;48.852;9.936;2024-01-06T00:01:51;4.70;99.90
47961;DHT22;33721;48.852;9.936;2024-01-06T00:04:17;4.70;99.90
47961;DHT22;33721;48.852;9.936;2024-01-06T00:06:42;4.70;99.90
47961;DHT22;33721;48.852;9.936;2024-01-06T00:09:08;4.70;99.90
47961;DHT22;33721;48.852;9.936;2024-01-06T00:11:33;4.70;99.90
47961;DHT22;33721;48.852;9.936;2024-01-06T00:13:59;4.70;99.90
47961;DHT22;33721;48.852;9.936;2024-01-06T00:16:25;4.60;99.90
47961;DHT22;33721;48.852;9.936;2024-01-06T00:18:50;4.60;99.90
47961;DHT22;33721;48.852;9.936;2024-01-06T00:21:16;4.60;99.90
47961;DHT22;33721;48.852;9.936;2024-01-06T00:23:41;4.60;99.90
47961;DHT22;33721;48.852;9.936;2024-01-06T00:26:07;4.60;99.90
47961;DHT22;33721;48.852;9.936;2024-01-06T00:28:34;4.60;99.90
47961;DHT22;33721;48.852;9.936;2024-01-06T00:30:59;4.60;99.90
47961;DHT22;33721;48.852;9.936;2024-01-06T00:33:25;4.60;99.90
47961;DHT22;33721;48.852;9.936;2024-01-06T00:35:50;4.60;99.90
47961;DHT22;33721;48.852;9.936;2024-01-06T00:38:16;4.60;99.90
47961;DHT22;33721;48.852;9.936;2024-01-06T00:40:42;4.60;99.90
47961;DHT22;33721;48.852;9.936;2024-01-06T00:43:08;4.60;99.90
47961;DHT22;33721;48.852;9.936;2024-01-06T00:45:33;4.60;99.90
47961;DHT22;33721;48.852;9.936;2024-01-06T00:47:59;4.60;99.90
47961;DHT22;33721;48.852;9.936;2024-01-06T00:50:25;4.60;99.90
47961;DHT22;33721;48.852;9.936;2024-01-06T00:52:50;4.70;99.90
47961;DHT22;33721;48.852;9.936;2024-01-06T00:55:19;4.70;99.90
47961;DHT22;33721;48.852;9.936;2024-01-06T00:57:45;4.70;99.90
47961;DHT22;33721;48.852;9.936;2024-01-06T01:00:12;4.70;99.90
47961;DHT22;33721;48.852;9.936;2024-01-06T01:02:38;4.70;99.90
47961;DHT22;33721;48.852;9.936;2024-01-06T01:05:04;4.70;99.90
47961;DHT22;33721;48.852;9.936;2024-01-06T01:07:29;4.70;99.90
47961;DHT22;33721;48.852;9.936;2024-01-06T01:09:56;4.70;99.90
47961;DHT22;33721;48.852;9.936;2024-01-06T01:12:23;4.70;99.90
47961;DHT22;33721;48.852;9.936;2024-01-06T01:14:49;4.70;99.90
47961;DHT22;33721;48.852;9.936;2024-01-06T01:17:15;4.60;99.90
47961;DHT22;33721;48.852;9.936;2024-01-06T01:19:40;4.60;99.90
47961;DHT22;33721;48.852;9.936;2024-01-06T01:22:06;4.50;99.90
47961;DHT22;33721;48.852;9.936;2024-01-06T01:24:31;4.60;99.90
47961;DHT22;33721;48.852;9.936;2024-01-06T01:26:57;4.60;99.90
47961;DHT22;33721;48.852;9.936;2024-01-06T01:29:22;4.60;99.90
47961;DHT22;33721;48.852;9.936;2024-01-06T01:31:48;4.60;99.90
47961;DHT22;33721;48.852;9.936;2024-01-06T01:34:14;4.60;99.90
47961;DHT22;33721;48.852;9.936;2024-01-06T01:36:40;4.60;99.90
47961;DHT22;33721;48.852;9.936;2024-01-06T01:39:06;4.60;99.90
47961;DHT22;33721;48.852;9.936;2024-01-06T01:41:31;4.50;99.90
47961;DHT22;33721;48.852;9.936;2024-01-06T01:43:57;4.50;99.90
47961;DHT22;33721;48.852;9.936;2024-01-06T01:46:26;4.50;99.90
47961;DHT22;33721;48.852;9.936;2024-01-06T01:48:53;4.50;99.90
47961;DHT22;33721;48.852;9.936;2024-01-06T01:51:20;4.40;99.90
47961;DHT22;33721;48.852;9.936;2024-01-06T01:53:47;4.30;99.90
47961;DHT22;33721;48.852;9.936;2024-01-06T01:56:13;4.30;99.90
47961;DHT22;33721;48.852;9.936;2024-01-06T01:58:39;4.30;99.90
47961;DHT22;33721;48.852;9.936;2024-01-06T02:01:04;4.30;99.90
47961;DHT22;33721;48.852;9.936;2024-01-06T02:03:30;4.30;99.90
47961;DHT22;33721;48.852;9.936;2024-01-06T02:05:56;4.30;99.90
47961;DHT22;33721;48.852;9.936;2024-01-06T02:08:22;4.40;99.90
47961;DHT22;33721;48.852;9.936;2024-01-06T02:10:48;4.40;99.90
47961;DHT22;33721;48.852;9.936;2024-01-06T02:13:14;4.40;99.90
47961;DHT22;33721;48.852;9.936;2024-01-06T02:15:40;4.50;99.90
47961;DHT22;33721;48.852;9.936;2024-01-06T02:18:05;4.50;99.90
47961;DHT22;33721;48.852;9.936;2024-01-06T02:20:31;4.50;99.90
47961;DHT22;33721;48.852;9.936;2024-01-06T02:22:57;4.60;99.90
47961;DHT22;33721;48.852;9.936;2024-01-06T02:25:25;4.60;99.90
47961;DHT22;33721;48.852;9.936;2024-01-06T02:27:50;4.60;99.90
47961;DHT22;33721;48.852;9.936;2024-01-06T02:30:16;4.60;99.90
47961;DHT22;33721;48.852;9.936;2024-01-06T02:32:41;4.60;99.90
47961;DHT22;33721;48.852;9.936;2024-01-06T02:35:07;4.50;99.90
47961;DHT22;33721;48.852;9.936;2024-01-06T02:37:33;4.50;99.90
47961;DHT22;33721;48.852;9.936;2024-01-06T02:39:59;4.50;99.90
47961;DHT22;33721;48.852;9.936;2024-01-06T02:42:24;4.60;99.90
47961;DHT22;33721;48.852;9.936;2024-01-06T02:44:51;4.50;99.90
47961;DHT22;33721;48.852;9.936;2024-01-06T02:47:16;4.60;99.90
47961;DHT22;33721;48.852;9.936;2024-01-06T02:49:42;4.50;99.90
47961;DHT22;33721;48.852;9.936;2024-01-06T02:52:07;4.50;99.90
47961;DHT22;33721;48.852;9.936;2024-01-06T02:54:33;4.50;99.90
47961;DHT22;33721;48.852;9.936;2024-01-06T02:56:59;4.50;99.90
47961;DHT22;33721;48.852;9.936;2024-01-06T02:59:24;4.50;99.90
47961;DHT22;33721;48.852;9.936;2024-01-06T03:01:50;4.50;99.90
47961;DHT22;33721;48.852;9.936;2024-01-06T03:04:16;4.50;99.90
47961;DHT22;33721;48.852;9.936;2024-01-06T03:06:42;4.50;99.90
47961;DHT22;33721;48.852;9.936;2024-01-06T03:09:07;4.50;99.90
47961;DHT22;33721;48.852;9.936;2024-01-06T03:11:33;4.50;99.90
47961;DHT22;33721;48.852;9.936;2024-01-06T03:13:58;4.50;99.90
47961;DHT22;33721;48.852;9.936;2024-01-06T03:16:24;4.50;99.90
47961;DHT22;33721;48.852;9.936;2024-01-06T03:18:50;4.50;99.90
47961;DHT22;33721;48.852;9.936;2024-01-06T03:21:19;4.50;99.90
47961;DHT22;33721;48.852;9.936;2024-01-06T03:23:46;4.50;99.90
47961;DHT22;33721;48.852;9.936;2024-01-06T03:26:12;4.50;99.90
47961;DHT22;33721;48.852;9.936;2024-01-06T03:28:37;4.50;99.90
47961;DHT22;33721;48.852;9.936;2024-01-06T03:31:03;4.50;99.90
47961;DHT22;33721;48.852;9.936;2024-01-06T03:33:29;4.40;99.90
47961;DHT22;33721;48.852;9.936;2024-01-06T03:35:54;4.30;99.90
47961;DHT22;33721;48.852;9.936;2024-01-06T03:38:20;4.30;99.90
47961;DHT22;33721;48.852;9.936;2024-01-06T03:40:45;4.30;99.90
47961;DHT22;33721;48.852;9.936;2024-01-06T03:43:11;4.40;99.90
47961;DHT22;33721;48.852;9.936;2024-01-06T03:45:37;4.40;99.90
47961;DHT22;33721;48.852;9.936;2024-01-06T03:48:02;4.40;99.90
47961;DHT22;33721;48.852;9.936;2024-01-06T03:50:28;4.30;99.90
47961;DHT22;33721;48.852;9.936;2024-01-06T03:52:53;4.30;99.90
47961;DHT22;33721;48.852;9.936;2024-01-06T03:55:19;4.30;99.90
47961;DHT22;33721;48.852;9.936;2024-01-06T03:57:45;4.30;99.90
47961;DHT22;33721;48.852;9.936;2024-01-06T04:00:11;4.30;99.90
47961;DHT22;33721;48.852;9.936;2024-01-06T04:02:36;4.30;99.90
47961;DHT22;33721;48.852;9.936;2024-01-06T04:05:02;4.20;99.90
47961;DHT22;33721;48.852;9.936;2024-01-06T04:07:30;4.30;99.90
47961;DHT22;33721;48.852;9.936;2024-01-06T04:09:56;4.30;99.90
47961;DHT22;33721;48.852;9.936;2024-01-06T04:12:21;4.30;99.90
47961;DHT22;33721;48.852;9.936;2024-01-06T04:14:47;4.30;99.90
47961;DHT22;33721;48.852;9.936;2024-01-06T04:17:13;4.20;99.90
47961;DHT22;33721;48.852;9.936;2024-01-06T04:19:38;4.20;99.90
47961;DHT22;33721;48.852;9.936;2024-01-06T04:22:04;4.20;99.90
47961;DHT22;33721;48.852;9.936;2024-01-06T04:24:29;4.20;99.90
47961;DHT22;33721;48.852;9.936;2024-01-06T04:26:55;4.20;99.90
47961;DHT22;33721;48.852;9.936;2024-01-06T04:29:21;4.20;99.90
47961;DHT22;33721;48.852;9.936;2024-01-06T04:31:47;4.20;99.90
47961;DHT22;33721;48.852;9.936;2024-01-06T04:34:12;4.20;99.90
47961;DHT22;33721;48.852;9.936;2024-01-06T04:36:38;4.20;99.90
47961;DHT22;33721;48.852;9.936;2024-01-06T04:39:03;4.20;99.90
47961;DHT22;33721;48.852;9.936;2024-01-06T04:41:29;4.30;99.90
47961;DHT22;33721;48.852;9.936;2024-01-06T04:43:55;4.20;99.90
47961;DHT22;33721;48.852;9.936;2024-01-06T04:46:20;4.20;99.90
47961;DHT22;33721;48.852;9.936;2024-01-06T04:48:47;4.30;99.90
47961;DHT22;33721;48.852;9.936;2024-01-06T04:51:12;4.30;99.90
47961;DHT22;33721;48.852;9.936;2024-01-06T04:53:39;4.30;99.90
47961;DHT22;33721;48.852;9.936;2024-01-06T04:56:05;4.40;99.90
47961;DHT22;33721;48.852;9.936;2024-01-06T04:58:31;4.30;99.90
47961;DHT22;33721;48.852;9.936;2024-01-06T05:00:56;4.30;99.90
47961;DHT22;33721;48.852;9.936;2024-01-06T05:03:22;4.20;99.90
47961;DHT22;33721;48.852;9.936;2024-01-06T05:05:48;4.10;99.90
47961;DHT22;33721;48.852;9.936;2024-01-06T05:08:14;4.10;99.90
47961;DHT22;33721;48.852;9.936;2024-01-06T05:10:39;4.10;99.90
47961;DHT22;33721;48.852;9.936;2024-01-06T05:13:05;4.10;99.90
47961;DHT22;33721;48.852;9.936;2024-01-06T05:15:30;4.10;99.90
47961;DHT22;33721;48.852;9.936;2024-01-06T05:17:56;4.10;99.90
47961;DHT22;33721;48.852;9.936;2024-01-06T05:20:22;4.10;99.90
47961;DHT22;33721;48.852;9.936;2024-01-06T05:22:47;4.10;99.90
47961;DHT22;33721;48.852;9.936;2024-01-06T05:25:13;4.10;99.90
47961;DHT22;33721;48.852;9.936;2024-01-06T05:27:39;4.00;99.90
47961;DHT22;33721;48.852;9.936;2024-01-06T05:30:05;4.00;99.90
47961;DHT22;33721;48.852;9.936;2024-01-06T05:32:31;4.00;99.90
47961;DHT22;33721;48.852;9.936;2024-01-06T05:34:57;4.00;99.90
47961;DHT22;33721;48.852;9.936;2024-01-06T05:37:23;3.90;99.90
47961;DHT22;33721;48.852;9.936;2024-01-06T05:39:48;3.90;99.90
47961;DHT22;33721;48.852;9.936;2024-01-06T05:42:14;3.90;99.90
47961;DHT22;33721;48.852;9.936;2024-01-06T05:44:42;3.90;99.90
47961;DHT22;33721;48.852;9.936;2024-01-06T05:47:08;3.90;99.90
47961;DHT22;33721;48.852;9.936;2024-01-06T05:49:34;3.90;99.90
47961;DHT22;33721;48.852;9.936;2024-01-06T05:52:00;4.00;99.90
47961;DHT22;33721;48.852;9.936;2024-01-06T05:54:25;4.00;99.90
47961;DHT22;33721;48.852;9.936;2024-01-06T05:56:51;4.00;99.90
47961;DHT22;33721;48.852;9.936;2024-01-06T05:59:17;4.00;99.90
47961;DHT22;33721;48.852;9.936;2024-01-06T06:01:43;4.00;99.90
47961;DHT22;33721;48.852;9.936;2024-01-06T06:04:10;4.00;99.90
47961;DHT22;33721;48.852;9.936;2024-01-06T06:06:35;4.00;99.90
47961;DHT22;33721;48.852;9.936;2024-01-06T06:09:01;4.00;99.90
47961;DHT22;33721;48.852;9.936;2024-01-06T06:11:32;4.00;99.90
47961;DHT22;33721;48.852;9.936;2024-01-06T06:13:58;4.00;99.90
47961;DHT22;33721;48.852;9.936;2024-01-06T06:16:23;4.00;99.90
47961;DHT22;33721;48.852;9.936;2024-01-06T06:18:49;4.10;99.90
47961;DHT22;33721;48.852;9.936;2024-01-06T06:21:15;4.10;99.90
47961;DHT22;33721;48.852;9.936;2024-01-06T06:23:41;4.10;99.90
47961;DHT22;33721;48.852;9.936;2024-01-06T06:26:07;4.10;99.90
47961;DHT22;33721;48.852;9.936;2024-01-06T06:28:33;4.10;99.90
47961;DHT22;33721;48.852;9.936;2024-01-06T06:31:00;4.10;99.90
47961;DHT22;33721;48.852;9.936;2024-01-06T06:33:26;4.00;99.90
47961;DHT22;33721;48.852;9.936;2024-01-06T06:35:52;4.00;99.90
47961;DHT22;33721;48.852;9.936;2024-01-06T06:38:18;4.00;99.90
47961;DHT22;33721;48.852;9.936;2024-01-06T06:40:43;4.00;99.90
47961;DHT22;33721;48.852;9.936;2024-01-06T06:43:09;4.00;99.90
47961;DHT22;33721;48.852;9.936;2024-01-06T06:45:34;4.00;99.90
47961;DHT22;33721;48.852;9.936;2024-01-06T06:48:00;4.00;99.90
47961;DHT22;33721;48.852;9.936;2024-01-06T06:50:26;3.90;99.90
47961;DHT22;33721;48.852;9.936;2024-01-06T06:52:51;3.90;99.90
47961;DHT22;33721;48.852;9.936;2024-01-06T06:55:18;3.90;99.90
47961;DHT22;33721;48.852;9.936;2024-01-06T06:57:43;3.90;99.90
47961;DHT22;33721;48.852;9.936;2024-01-06T07:00:09;3.90;99.90
47961;DHT22;33721;48.852;9.936;2024-01-06T07:02:35;3.90;99.90
47961;DHT22;33721;48.852;9.936;2024-01-06T07:05:01;3.90;99.90
47961;DHT22;33721;48.852;9.936;2024-01-06T07:07:27;3.80;99.90
47961;DHT22;33721;48.852;9.936;2024-01-06T07:09:53;3.80;99.90
47961;DHT22;33721;48.852;9.936;2024-01-06T07:12:18;3.70;99.90
47961;DHT22;33721;48.852;9.936;2024-01-06T07:14:44;3.70;99.90
47961;DHT22;33721;48.852;9.936;2024-01-06T07:17:10;3.70;99.90
47961;DHT22;33721;48.852;9.936;2024-01-06T07:19:35;3.70;99.90
47961;DHT22;33721;48.852;9.936;2024-01-06T07:22:01;3.70;99.90
47961;DHT22;33721;48.852;9.936;2024-01-06T07:24:27;3.80;99.90
47961;DHT22;33721;48.852;9.936;2024-01-06T07:26:52;3.80;99.90
47961;DHT22;33721;48.852;9.936;2024-01-06T07:29:18;3.80;99.90
47961;DHT22;33721;48.852;9.936;2024-01-06T07:31:44;3.80;99.90
47961;DHT22;33721;48.852;9.936;2024-01-06T07:34:10;3.90;99.90
47961;DHT22;33721;48.852;9.936;2024-01-06T07:36:35;4.00;99.90
47961;DHT22;33721;48.852;9.936;2024-01-06T07:39:01;4.00;99.90
47961;DHT22;33721;48.852;9.936;2024-01-06T07:41:29;4.00;99.90
47961;DHT22;33721;48.852;9.936;2024-01-06T07:43:56;4.00;99.90
47961;DHT22;33721;48.852;9.936;2024-01-06T07:46:22;4.00;99.90
47961;DHT22;33721;48.852;9.936;2024-01-06T07:48:47;4.00;99.90
47961;DHT22;33721;48.852;9.936;2024-01-06T07:51:13;4.00;99.90
47961;DHT22;33721;48.852;9.936;2024-01-06T07:53:39;4.10;99.90
47961;DHT22;33721;48.852;9.936;2024-01-06T07:56:05;4.00;99.90
47961;DHT22;33721;48.852;9.936;2024-01-06T07:58:31;4.00;99.90
47961;DHT22;33721;48.852;9.936;2024-01-06T08:00:57;4.00;99.90
47961;DHT22;33721;48.852;9.936;2024-01-06T08:03:22;4.00;99.90
47961;DHT22;33721;48.852;9.936;2024-01-06T08:05:48;4.00;99.90
47961;DHT22;33721;48.852;9.936;2024-01-06T08:08:15;4.00;99.90
47961;DHT22;33721;48.852;9.936;2024-01-06T08:10:42;4.00;99.90
47961;DHT22;33721;48.852;9.936;2024-01-06T08:13:08;3.90;99.90
47961;DHT22;33721;48.852;9.936;2024-01-06T08:15:33;4.00;99.90
47961;DHT22;33721;48.852;9.936;2024-01-06T08:17:59;4.00;99.90
47961;DHT22;33721;48.852;9.936;2024-01-06T08:20:25;4.00;99.90
47961;DHT22;33721;48.852;9.936;2024-01-06T08:22:51;4.10;99.90
47961;DHT22;33721;48.852;9.936;2024-01-06T08:25:16;4.10;99.90
47961;DHT22;33721;48.852;9.936;2024-01-06T08:27:43;4.10;99.90
47961;DHT22;33721;48.852;9.936;2024-01-06T08:30:09;4.20;99.90
47961;DHT22;33721;48.852;9.936;2024-01-06T08:32:35;4.30;99.90
47961;DHT22;33721;48.852;9.936;2024-01-06T08:35:01;4.30;99.90
47961;DHT22;33721;48.852;9.936;2024-01-06T08:37:26;4.40;99.90
47961;DHT22;33721;48.852;9.936;2024-01-06T08:39:52;4.40;99.90
47961;DHT22;33721;48.852;9.936;2024-01-06T08:42:18;4.50;99.90
47961;DHT22;33721;48.852;9.936;2024-01-06T08:44:44;4.50;99.90
47961;DHT22;33721;48.852;9.936;2024-01-06T08:47:10;4.40;99.90
47961;DHT22;33721;48.852;9.936;2024-01-06T08:49:35;4.40;99.90
47961;DHT22;33721;48.852;9.936;2024-01-06T08:52:01;4.40;99.90
47961;DHT22;33721;48.852;9.936;2024-01-06T08:54:27;4.40;99.90
47961;DHT22;33721;48.852;9.936;2024-01-06T08:56:52;4.40;99.90
47961;DHT22;33721;48.852;9.936;2024-01-06T08:59:18;4.50;99.90
47961;DHT22;33721;48.852;9.936;2024-01-06T09:01:45;4.50;99.90
47961;DHT22;33721;48.852;9.936;2024-01-06T09:04:11;4.40;99.90
47961;DHT22;33721;48.852;9.936;2024-01-06T09:06:38;4.40;99.90
47961;DHT22;33721;48.852;9.936;2024-01-06T09:09:04;4.40;99.90
47961;DHT22;33721;48.852;9.936;2024-01-06T09:11:30;4.50;99.90
47961;DHT22;33721;48.852;9.936;2024-01-06T09:13:56;4.40;99.90
47961;DHT22;33721;48.852;9.936;2024-01-06T09:16:22;4.40;99.90
47961;DHT22;33721;48.852;9.936;2024-01-06T09:18:48;4.50;99.90
47961;DHT22;33721;48.852;9.936;2024-01-06T09:21:14;4.50;99.90
47961;DHT22;33721;48.852;9.936;2024-01-06T09:23:40;4.50;99.90
47961;DHT22;33721;48.852;9.936;2024-01-06T09:26:06;4.60;99.90
47961;DHT22;33721;48.852;9.936;2024-01-06T09:28:32;4.60;99.90
47961;DHT22;33721;48.852;9.936;2024-01-06T09:30:57;4.50;99.90
47961;DHT22;33721;48.852;9.936;2024-01-06T09:33:23;4.60;99.90
47961;DHT22;33721;48.852;9.936;2024-01-06T09:35:49;4.60;99.90
47961;DHT22;33721;48.852;9.936;2024-01-06T09:38:14;4.60;99.90
47961;DHT22;33721;48.852;9.936;2024-01-06T09:40:44;4.70;99.90
47961;DHT22;33721;48.852;9.936;2024-01-06T09:43:12;4.70;99.90
47961;DHT22;33721;48.852;9.936;2024-01-06T09:45:39;4.60;99.90
47961;DHT22;33721;48.852;9.936;2024-01-06T09:48:12;4.60;99.90
47961;DHT22;33721;48.852;9.936;2024-01-06T09:50:42;4.60;99.90
47961;DHT22;33721;48.852;9.936;2024-01-06T09:53:11;4.60;99.90
47961;DHT22;33721;48.852;9.936;2024-01-06T09:55:37;4.60;99.90
47961;DHT22;33721;48.852;9.936;2024-01-06T09:58:04;4.70;99.90
47961;DHT22;33721;48.852;9.936;2024-01-06T10:00:30;4.70;99.90
47961;DHT22;33721;48.852;9.936;2024-01-06T10:02:56;4.70;99.90
47961;DHT22;33721;48.852;9.936;2024-01-06T10:05:22;4.70;99.90
47961;DHT22;33721;48.852;9.936;2024-01-06T10:07:47;4.80;99.90
47961;DHT22;33721;48.852;9.936;2024-01-06T10:10:14;4.70;99.90
47961;DHT22;33721;48.852;9.936;2024-01-06T10:12:41;4.80;99.90
47961;DHT22;33721;48.852;9.936;2024-01-06T10:15:11;4.80;99.90
47961;DHT22;33721;48.852;9.936;2024-01-06T10:17:41;4.80;99.90
47961;DHT22;33721;48.852;9.936;2024-01-06T10:20:09;4.80;99.90
47961;DHT22;33721;48.852;9.936;2024-01-06T10:22:36;4.80;99.90
47961;DHT22;33721;48.852;9.936;2024-01-06T10:25:05;4.80;99.90
47961;DHT22;33721;48.852;9.936;2024-01-06T10:27:37;4.80;99.90
47961;DHT22;33721;48.852;9.936;2024-01-06T10:30:02;4.80;99.90
47961;DHT22;33721;48.852;9.936;2024-01-06T10:32:31;4.80;99.90
47961;DHT22;33721;48.852;9.936;2024-01-06T10:34:57;4.80;99.90
47961;DHT22;33721;48.852;9.936;2024-01-06T10:37:24;4.80;99.90
47961;DHT22;33721;48.852;9.936;2024-01-06T10:40:22;4.90;99.90
47961;DHT22;33721;48.852;9.936;2024-01-06T10:42:48;5.00;99.90
47961;DHT22;33721;48.852;9.936;2024-01-06T10:45:14;5.00;99.90
47961;DHT22;33721;48.852;9.936;2024-01-06T10:47:43;5.00;99.90
47961;DHT22;33721;48.852;9.936;2024-01-06T10:50:09;5.00;99.90
47961;DHT22;33721;48.852;9.936;2024-01-06T10:52:37;5.10;99.90
47961;DHT22;33721;48.852;9.936;2024-01-06T10:55:05;5.20;99.90
47961;DHT22;33721;48.852;9.936;2024-01-06T10:57:31;5.30;99.90
47961;DHT22;33721;48.852;9.936;2024-01-06T10:59:58;5.40;99.90
47961;DHT22;33721;48.852;9.936;2024-01-06T11:02:25;5.40;99.90
47961;DHT22;33721;48.852;9.936;2024-01-06T11:04:51;5.30;99.90
47961;DHT22;33721;48.852;9.936;2024-01-06T11:07:19;5.30;99.90
47961;DHT22;33721;48.852;9.936;2024-01-06T11:12:24;5.50;99.90
47961;DHT22;33721;48.852;9.936;2024-01-06T11:14:51;5.50;99.90
47961;DHT22;33721;48.852;9.936;2024-01-06T11:17:53;5.50;99.90
47961;DHT22;33721;48.852;9.936;2024-01-06T11:20:29;5.30;99.90
47961;DHT22;33721;48.852;9.936;2024-01-06T11:23:19;5.30;99.90
47961;DHT22;33721;48.852;9.936;2024-01-06T11:25:46;5.20;99.90
47961;DHT22;33721;48.852;9.936;2024-01-06T11:28:11;5.20;99.90
47961;DHT22;33721;48.852;9.936;2024-01-06T11:30:38;5.00;99.90
47961;DHT22;33721;48.852;9.936;2024-01-06T11:33:04;5.00;99.90
47961;DHT22;33721;48.852;9.936;2024-01-06T11:35:30;5.10;99.90
47961;DHT22;33721;48.852;9.936;2024-01-06T11:38:06;5.20;99.90
47961;DHT22;33721;48.852;9.936;2024-01-06T11:40:36;5.20;99.90
47961;DHT22;33721;48.852;9.936;2024-01-06T11:43:03;5.30;99.90
47961;DHT22;33721;48.852;9.936;2024-01-06T11:45:29;5.30;99.90
47961;DHT22;33721;48.852;9.936;2024-01-06T11:47:57;5.30;99.90
47961;DHT22;33721;48.852;9.936;2024-01-06T11:50:27;5.20;99.90
47961;DHT22;33721;48.852;9.936;2024-01-06T11:52:54;5.10;99.90
47961;DHT22;33721;48.852;9.936;2024-01-06T11:55:20;5.10;99.90
47961;DHT22;33721;48.852;9.936;2024-01-06T11:57:46;5.10;99.90
47961;DHT22;33721;48.852;9.936;2024-01-06T12:00:16;5.10;99.90
47961;DHT22;33721;48.852;9.936;2024-01-06T12:02:42;5.00;99.90
47961;DHT22;33721;48.852;9.936;2024-01-06T12:05:15;5.10;99.90
47961;DHT22;33721;48.852;9.936;2024-01-06T12:07:41;5.10;99.90
47961;DHT22;33721;48.852;9.936;2024-01-06T12:10:10;5.00;99.90
47961;DHT22;33721;48.852;9.936;2024-01-06T12:12:37;4.90;99.90
47961;DHT22;33721;48.852;9.936;2024-01-06T12:15:03;4.80;99.90
47961;DHT22;33721;48.852;9.936;2024-01-06T12:17:30;4.90;99.90
47961;DHT22;33721;48.852;9.936;2024-01-06T12:19:57;4.90;99.90
47961;DHT22;33721;48.852;9.936;2024-01-06T12:22:22;5.00;99.90
47961;DHT22;33721;48.852;9.936;2024-01-06T12:24:52;5.00;99.90
47961;DHT22;33721;48.852;9.936;2024-01-06T12:27:17;5.00;99.90
47961;DHT22;33721;48.852;9.936;2024-01-06T12:29:44;5.00;99.90
47961;DHT22;33721;48.852;9.936;2024-01-06T12:32:10;4.90;99.90
47961;DHT22;33721;48.852;9.936;2024-01-06T12:34:38;4.90;99.90
47961;DHT22;33721;48.852;9.936;2024-01-06T12:37:06;4.90;99.90
47961;DHT22;33721;48.852;9.936;2024-01-06T12:39:33;4.90;99.90
47961;DHT22;33721;48.852;9.936;2024-01-06T12:41:58;5.00;99.90
47961;DHT22;33721;48.852;9.936;2024-01-06T12:44:27;5.10;99.90
47961;DHT22;33721;48.852;9.936;2024-01-06T12:46:54;5.20;99.90
47961;DHT22;33721;48.852;9.936;2024-01-06T12:49:20;5.20;99.90
47961;DHT22;33721;48.852;9.936;2024-01-06T12:51:45;5.20;99.90
47961;DHT22;33721;48.852;9.936;2024-01-06T12:54:11;5.20;99.90
47961;DHT22;33721;48.852;9.936;2024-01-06T12:56:36;5.20;99.90
47961;DHT22;33721;48.852;9.936;2024-01-06T12:59:02;5.20;99.90
47961;DHT22;33721;48.852;9.936;2024-01-06T13:01:28;5.20;99.90
47961;DHT22;33721;48.852;9.936;2024-01-06T13:03:53;5.20;99.90
47961;DHT22;33721;48.852;9.936;2024-01-06T13:06:20;5.20;99.90
47961;DHT22;33721;48.852;9.936;2024-01-06T13:08:46;5.20;99.90
47961;DHT22;33721;48.852;9.936;2024-01-06T13:11:12;5.20;99.90
47961;DHT22;33721;48.852;9.936;2024-01-06T13:13:38;5.30;99.90
47961;DHT22;33721;48.852;9.936;2024-01-06T13:16:04;5.30;99.90
47961;DHT22;33721;48.852;9.936;2024-01-06T13:18:30;5.30;99.90
47961;DHT22;33721;48.852;9.936;2024-01-06T13:20:56;5.30;99.90
47961;DHT22;33721;48.852;9.936;2024-01-06T13:23:22;5.30;99.90
47961;DHT22;33721;48.852;9.936;2024-01-06T13:25:48;5.20;99.90
47961;DHT22;33721;48.852;9.936;2024-01-06T13:28:13;5.20;99.90
47961;DHT22;33721;48.852;9.936;2024-01-06T13:30:39;5.20;99.90
47961;DHT22;33721;48.852;9.936;2024-01-06T13:33:07;5.30;99.90
47961;DHT22;33721;48.852;9.936;2024-01-06T13:35:32;5.30;99.90
47961;DHT22;33721;48.852;9.936;2024-01-06T13:37:59;5.30;99.90
47961;DHT22;33721;48.852;9.936;2024-01-06T13:40:25;5.30;99.90
47961;DHT22;33721;48.852;9.936;2024-01-06T13:42:51;5.30;99.90
47961;DHT22;33721;48.852;9.936;2024-01-06T13:45:18;5.20;99.90
47961;DHT22;33721;48.852;9.936;2024-01-06T13:47:43;5.20;99.90
47961;DHT22;33721;48.852;9.936;2024-01-06T13:50:14;5.20;99.90
47961;DHT22;33721;48.852;9.936;2024-01-06T13:52:40;5.20;99.90
47961;DHT22;33721;48.852;9.936;2024-01-06T13:55:06;5.20;99.90
47961;DHT22;33721;48.852;9.936;2024-01-06T13:57:32;5.10;99.90
47961;DHT22;33721;48.852;9.936;2024-01-06T13:59:58;5.20;99.90
47961;DHT22;33721;48.852;9.936;2024-01-06T14:02:24;5.20;99.90
47961;DHT22;33721;48.852;9.936;2024-01-06T14:04:50;5.20;99.90
47961;DHT22;33721;48.852;9.936;2024-01-06T14:07:16;5.10;99.90
47961;DHT22;33721;48.852;9.936;2024-01-06T14:09:48;5.20;99.90
47961;DHT22;33721;48.852;9.936;2024-01-06T14:12:14;5.20;99.90
47961;DHT22;33721;48.852;9.936;2024-01-06T14:14:40;5.20;99.90
47961;DHT22;33721;48.852;9.936;2024-01-06T14:17:08;5.10;99.90
47961;DHT22;33721;48.852;9.936;2024-01-06T14:19:34;5.20;99.90
47961;DHT22;33721;48.852;9.936;2024-01-06T14:22:00;5.20;99.90
47961;DHT22;33721;48.852;9.936;2024-01-06T14:24:26;5.20;99.90
47961;DHT22;33721;48.852;9.936;2024-01-06T14:26:53;5.20;99.90
47961;DHT22;33721;48.852;9.936;2024-01-06T14:29:20;5.20;99.90
47961;DHT22;33721;48.852;9.936;2024-01-06T14:31:46;5.20;99.90
47961;DHT22;33721;48.852;9.936;2024-01-06T14:34:12;5.20;99.90
47961;DHT22;33721;48.852;9.936;2024-01-06T14:36:38;5.20;99.90
47961;DHT22;33721;48.852;9.936;2024-01-06T14:39:04;5.20;99.90
47961;DHT22;33721;48.852;9.936;2024-01-06T14:41:32;5.20;99.90
47961;DHT22;33721;48.852;9.936;2024-01-06T14:43:58;5.20;99.90
47961;DHT22;33721;48.852;9.936;2024-01-06T14:46:24;5.10;99.90
47961;DHT22;33721;48.852;9.936;2024-01-06T14:48:50;5.10;99.90
47961;DHT22;33721;48.852;9.936;2024-01-06T14:51:17;5.10;99.90
47961;DHT22;33721;48.852;9.936;2024-01-06T14:53:42;5.00;99.90
47961;DHT22;33721;48.852;9.936;2024-01-06T14:56:08;5.00;99.90
47961;DHT22;33721;48.852;9.936;2024-01-06T14:58:34;5.00;99.90
47961;DHT22;33721;48.852;9.936;2024-01-06T15:00:59;5.00;99.90
47961;DHT22;33721;48.852;9.936;2024-01-06T15:03:25;4.90;99.90
47961;DHT22;33721;48.852;9.936;2024-01-06T15:05:51;4.90;99.90
47961;DHT22;33721;48.852;9.936;2024-01-06T15:08:16;4.90;99.90
47961;DHT22;33721;48.852;9.936;2024-01-06T15:10:42;4.90;99.90
47961;DHT22;33721;48.852;9.936;2024-01-06T15:13:07;4.90;99.90
47961;DHT22;33721;48.852;9.936;2024-01-06T15:15:33;4.90;99.90
47961;DHT22;33721;48.852;9.936;2024-01-06T15:17:59;4.80;99.90
47961;DHT22;33721;48.852;9.936;2024-01-06T15:20:24;4.80;99.90
47961;DHT22;33721;48.852;9.936;2024-01-06T15:22:50;4.70;99.90
47961;DHT22;33721;48.852;9.936;2024-01-06T15:25:16;4.70;99.90
47961;DHT22;33721;48.852;9.936;2024-01-06T15:27:43;4.70;99.90
47961;DHT22;33721;48.852;9.936;2024-01-06T15:30:09;4.70;99.90
47961;DHT22;33721;48.852;9.936;2024-01-06T15:32:38;4.70;99.90
47961;DHT22;33721;48.852;9.936;2024-01-06T15:35:06;4.70;99.90
47961;DHT22;33721;48.852;9.936;2024-01-06T15:37:32;4.70;99.90
47961;DHT22;33721;48.852;9.936;2024-01-06T15:39:58;4.70;99.90
47961;DHT22;33721;48.852;9.936;2024-01-06T15:42:23;4.70;99.90